N89AH KTXK-KAFW
Flight info
| Callsign | N89AH |
|---|---|
| Flight time | 1h 26m |
| Altitude | 6000 |
| Route | TXK SASIE8 |
| Aircraft | H160/L-VGDW/C |
Departure
| Time | 2026-05-05 15:18 |
|---|---|
| Airport | Texarkana Regional Airport (Webb Field) (KTXK) |
Arrival
| Time | 2026-05-05 16:44 |
|---|---|
| Airport | Perot Field/Fort Worth Alliance Airport (KAFW) |
| Time | Latitude | Longitude | Altitude | Speed | Heading |
|---|---|---|---|---|---|
| 2026-05-05 15:14 | 33.45955 | -93.99558 | 358 ft | 0 kts | 360° |
| 2026-05-05 15:17 | 33.45950 | -93.99548 | 362 ft | 0 kts | 165° |
| 2026-05-05 15:17 | 33.45949 | -93.99547 | 367 ft | 1 kts | 159° |
| 2026-05-05 15:17 | 33.45952 | -93.99546 | 382 ft | 1 kts | 161° |
| 2026-05-05 15:17 | 33.45951 | -93.99546 | 435 ft | 0 kts | 181° |
| 2026-05-05 15:18 | 33.45833 | -93.99542 | 637 ft | 36 kts | 180° |
| 2026-05-05 15:18 | 33.45458 | -93.99688 | 880 ft | 76 kts | 209° |
| 2026-05-05 15:18 | 33.45198 | -94.00246 | 1164 ft | 83 kts | 251° |
| 2026-05-05 15:18 | 33.45306 | -94.01031 | 1439 ft | 106 kts | 279° |
| 2026-05-05 15:19 | 33.45792 | -94.01717 | 1739 ft | 113 kts | 305° |
| 2026-05-05 15:19 | 33.46401 | -94.02342 | 2032 ft | 117 kts | 306° |
| 2026-05-05 15:19 | 33.47025 | -94.02971 | 2331 ft | 118 kts | 307° |
| 2026-05-05 15:19 | 33.47661 | -94.03617 | 2615 ft | 123 kts | 307° |
| 2026-05-05 15:20 | 33.48330 | -94.04300 | 2817 ft | 130 kts | 307° |
| 2026-05-05 15:20 | 33.49046 | -94.05032 | 2938 ft | 138 kts | 306° |
| 2026-05-05 15:20 | 33.49746 | -94.05823 | 3087 ft | 138 kts | 301° |
| 2026-05-05 15:20 | 33.50357 | -94.06662 | 3232 ft | 133 kts | 294° |
| 2026-05-05 15:21 | 33.50892 | -94.07541 | 3378 ft | 129 kts | 289° |
| 2026-05-05 15:21 | 33.51361 | -94.08432 | 3600 ft | 124 kts | 287° |
| 2026-05-05 15:21 | 33.51775 | -94.09312 | 3869 ft | 118 kts | 285° |
| 2026-05-05 15:21 | 33.52148 | -94.10165 | 4139 ft | 113 kts | 284° |
| 2026-05-05 15:22 | 33.52490 | -94.10989 | 4411 ft | 108 kts | 285° |
| 2026-05-05 15:22 | 33.52806 | -94.11782 | 4678 ft | 103 kts | 285° |
| 2026-05-05 15:22 | 33.53103 | -94.12552 | 4936 ft | 100 kts | 284° |
| 2026-05-05 15:22 | 33.53387 | -94.13306 | 5199 ft | 99 kts | 284° |
| 2026-05-05 15:23 | 33.53660 | -94.14043 | 5459 ft | 98 kts | 284° |
| 2026-05-05 15:23 | 33.53934 | -94.14789 | 5726 ft | 98 kts | 284° |
| 2026-05-05 15:23 | 33.54211 | -94.15549 | 5871 ft | 103 kts | 285° |
| 2026-05-05 15:23 | 33.54508 | -94.16361 | 5936 ft | 109 kts | 286° |
| 2026-05-05 15:24 | 33.54821 | -94.17219 | 5956 ft | 116 kts | 286° |
| 2026-05-05 15:24 | 33.55153 | -94.18154 | 5962 ft | 127 kts | 286° |
| 2026-05-05 15:24 | 33.55510 | -94.19160 | 5979 ft | 134 kts | 287° |
| 2026-05-05 15:24 | 33.55875 | -94.20180 | 5976 ft | 135 kts | 287° |
| 2026-05-05 15:25 | 33.56247 | -94.21213 | 5980 ft | 135 kts | 286° |
| 2026-05-05 15:25 | 33.56621 | -94.22280 | 5971 ft | 143 kts | 286° |
| 2026-05-05 15:25 | 33.57008 | -94.23387 | 5980 ft | 144 kts | 287° |
| 2026-05-05 15:25 | 33.57402 | -94.24504 | 5979 ft | 146 kts | 287° |
| 2026-05-05 15:26 | 33.57797 | -94.25627 | 5978 ft | 146 kts | 287° |
| 2026-05-05 15:26 | 33.58195 | -94.26759 | 5976 ft | 148 kts | 287° |
| 2026-05-05 15:26 | 33.58595 | -94.27894 | 5971 ft | 148 kts | 287° |
| 2026-05-05 15:26 | 33.58994 | -94.29029 | 5969 ft | 147 kts | 287° |
| 2026-05-05 15:27 | 33.59387 | -94.30145 | 5967 ft | 147 kts | 287° |
| 2026-05-05 15:27 | 33.59785 | -94.31276 | 5963 ft | 147 kts | 287° |
| 2026-05-05 15:27 | 33.60180 | -94.32405 | 5957 ft | 147 kts | 287° |
| 2026-05-05 15:27 | 33.60574 | -94.33529 | 5954 ft | 146 kts | 287° |
| 2026-05-05 15:28 | 33.60968 | -94.34653 | 5964 ft | 146 kts | 287° |
| 2026-05-05 15:28 | 33.61362 | -94.35780 | 5964 ft | 146 kts | 287° |
| 2026-05-05 15:28 | 33.61756 | -94.36904 | 5958 ft | 146 kts | 287° |
| 2026-05-05 15:28 | 33.62149 | -94.38028 | 5952 ft | 146 kts | 287° |
| 2026-05-05 15:29 | 33.62536 | -94.39136 | 5951 ft | 146 kts | 287° |
| 2026-05-05 15:29 | 33.62928 | -94.40259 | 5950 ft | 146 kts | 287° |
| 2026-05-05 15:29 | 33.63320 | -94.41381 | 5950 ft | 146 kts | 287° |
| 2026-05-05 15:29 | 33.63710 | -94.42499 | 5950 ft | 146 kts | 287° |
| 2026-05-05 15:30 | 33.64102 | -94.43621 | 5950 ft | 146 kts | 287° |
| 2026-05-05 15:30 | 33.64494 | -94.44744 | 5944 ft | 146 kts | 287° |
| 2026-05-05 15:30 | 33.64885 | -94.45867 | 5945 ft | 146 kts | 287° |
| 2026-05-05 15:30 | 33.65276 | -94.46989 | 5947 ft | 146 kts | 287° |
| 2026-05-05 15:31 | 33.65662 | -94.48094 | 5946 ft | 145 kts | 287° |
| 2026-05-05 15:31 | 33.66051 | -94.49213 | 5946 ft | 145 kts | 287° |
| 2026-05-05 15:31 | 33.66440 | -94.50328 | 5943 ft | 145 kts | 287° |
| 2026-05-05 15:31 | 33.66827 | -94.51442 | 5942 ft | 145 kts | 287° |
| 2026-05-05 15:32 | 33.67215 | -94.52556 | 5947 ft | 144 kts | 287° |
| 2026-05-05 15:32 | 33.67601 | -94.53668 | 5941 ft | 144 kts | 287° |
| 2026-05-05 15:32 | 33.67988 | -94.54780 | 5945 ft | 144 kts | 287° |
| 2026-05-05 15:32 | 33.68375 | -94.55893 | 5945 ft | 144 kts | 287° |
| 2026-05-05 15:33 | 33.68762 | -94.57006 | 5945 ft | 144 kts | 287° |
| 2026-05-05 15:33 | 33.69148 | -94.58118 | 5947 ft | 144 kts | 287° |
| 2026-05-05 15:33 | 33.69528 | -94.59215 | 5947 ft | 144 kts | 287° |
| 2026-05-05 15:33 | 33.69915 | -94.60329 | 5944 ft | 144 kts | 287° |
| 2026-05-05 15:34 | 33.70302 | -94.61443 | 5947 ft | 145 kts | 287° |
| 2026-05-05 15:34 | 33.70689 | -94.62558 | 5944 ft | 145 kts | 287° |
| 2026-05-05 15:34 | 33.71077 | -94.63677 | 5944 ft | 145 kts | 287° |
| 2026-05-05 15:34 | 33.71464 | -94.64793 | 5944 ft | 145 kts | 287° |
| 2026-05-05 15:35 | 33.71850 | -94.65908 | 5944 ft | 145 kts | 287° |
| 2026-05-05 15:35 | 33.72237 | -94.67026 | 5944 ft | 145 kts | 287° |
| 2026-05-05 15:35 | 33.72363 | -94.67390 | 5944 ft | 145 kts | 287° |
| 2026-05-05 15:35 | 33.72662 | -94.68253 | 5943 ft | 145 kts | 287° |
| 2026-05-05 15:36 | 33.73050 | -94.69374 | 5942 ft | 145 kts | 287° |
| 2026-05-05 15:36 | 33.73438 | -94.70493 | 5943 ft | 145 kts | 287° |
| 2026-05-05 15:36 | 33.73826 | -94.71617 | 5942 ft | 145 kts | 287° |
| 2026-05-05 15:36 | 33.74214 | -94.72738 | 5936 ft | 146 kts | 287° |
| 2026-05-05 15:37 | 33.74602 | -94.73861 | 5931 ft | 146 kts | 287° |
| 2026-05-05 15:37 | 33.74985 | -94.74969 | 5939 ft | 146 kts | 287° |
| 2026-05-05 15:37 | 33.75373 | -94.76092 | 5935 ft | 146 kts | 287° |
| 2026-05-05 15:37 | 33.75761 | -94.77217 | 5941 ft | 146 kts | 287° |
| 2026-05-05 15:38 | 33.76150 | -94.78342 | 5941 ft | 146 kts | 287° |
| 2026-05-05 15:38 | 33.76538 | -94.79469 | 5934 ft | 146 kts | 287° |
| 2026-05-05 15:38 | 33.76927 | -94.80596 | 5939 ft | 146 kts | 287° |
| 2026-05-05 15:38 | 33.77317 | -94.81726 | 5939 ft | 147 kts | 287° |
| 2026-05-05 15:39 | 33.77708 | -94.82860 | 5930 ft | 147 kts | 287° |
| 2026-05-05 15:39 | 33.78095 | -94.83984 | 5938 ft | 148 kts | 287° |
| 2026-05-05 15:39 | 33.78489 | -94.85126 | 5933 ft | 148 kts | 287° |
| 2026-05-05 15:39 | 33.78884 | -94.86273 | 5941 ft | 149 kts | 287° |
| 2026-05-05 15:40 | 33.79279 | -94.87422 | 5934 ft | 149 kts | 287° |
| 2026-05-05 15:40 | 33.79677 | -94.88578 | 5936 ft | 150 kts | 287° |
| 2026-05-05 15:40 | 33.80076 | -94.89735 | 5929 ft | 150 kts | 287° |
| 2026-05-05 15:40 | 33.80475 | -94.90896 | 5934 ft | 150 kts | 287° |
| 2026-05-05 15:41 | 33.80869 | -94.92042 | 5932 ft | 150 kts | 287° |
| 2026-05-05 15:41 | 33.81274 | -94.93219 | 5935 ft | 150 kts | 287° |
| 2026-05-05 15:41 | 33.81667 | -94.94364 | 5934 ft | 150 kts | 287° |
| 2026-05-05 15:41 | 33.82066 | -94.95526 | 5943 ft | 150 kts | 288° |
| 2026-05-05 15:42 | 33.82465 | -94.96687 | 5937 ft | 150 kts | 288° |
| 2026-05-05 15:42 | 33.82863 | -94.97847 | 5930 ft | 150 kts | 288° |
| 2026-05-05 15:42 | 33.83110 | -94.98568 | 5937 ft | 150 kts | 288° |
| 2026-05-05 15:42 | 33.83511 | -94.99736 | 5936 ft | 149 kts | 288° |
| 2026-05-05 15:43 | 33.83901 | -95.00874 | 5934 ft | 149 kts | 288° |
| 2026-05-05 15:43 | 33.84295 | -95.02024 | 5930 ft | 149 kts | 288° |
| 2026-05-05 15:43 | 33.84689 | -95.03175 | 5931 ft | 149 kts | 288° |
| 2026-05-05 15:43 | 33.85082 | -95.04326 | 5937 ft | 149 kts | 288° |
| 2026-05-05 15:44 | 33.85477 | -95.05480 | 5936 ft | 149 kts | 288° |
| 2026-05-05 15:44 | 33.85872 | -95.06634 | 5930 ft | 149 kts | 288° |
| 2026-05-05 15:44 | 33.86268 | -95.07793 | 5927 ft | 150 kts | 288° |
| 2026-05-05 15:44 | 33.86659 | -95.08935 | 5930 ft | 150 kts | 288° |
| 2026-05-05 15:45 | 33.86915 | -95.10127 | 5930 ft | 147 kts | 269° |
| 2026-05-05 15:45 | 33.86762 | -95.11329 | 5930 ft | 145 kts | 258° |
| 2026-05-05 15:45 | 33.86486 | -95.12498 | 5929 ft | 145 kts | 255° |
| 2026-05-05 15:45 | 33.86177 | -95.13655 | 5929 ft | 145 kts | 254° |
| 2026-05-05 15:46 | 33.85858 | -95.14807 | 5928 ft | 145 kts | 254° |
| 2026-05-05 15:46 | 33.85534 | -95.15953 | 5928 ft | 144 kts | 253° |
| 2026-05-05 15:46 | 33.85208 | -95.17095 | 5928 ft | 145 kts | 253° |
| 2026-05-05 15:46 | 33.84878 | -95.18241 | 5923 ft | 145 kts | 253° |
| 2026-05-05 15:47 | 33.84553 | -95.19367 | 5924 ft | 145 kts | 254° |
| 2026-05-05 15:47 | 33.84329 | -95.20141 | 5914 ft | 144 kts | 254° |
| 2026-05-05 15:47 | 33.83892 | -95.21648 | 5920 ft | 144 kts | 254° |
| 2026-05-05 15:47 | 33.83562 | -95.22781 | 5923 ft | 143 kts | 254° |
| 2026-05-05 15:48 | 33.83233 | -95.23911 | 5925 ft | 143 kts | 253° |
| 2026-05-05 15:48 | 33.82906 | -95.25034 | 5923 ft | 142 kts | 253° |
| 2026-05-05 15:48 | 33.82578 | -95.26156 | 5919 ft | 143 kts | 253° |
| 2026-05-05 15:48 | 33.82249 | -95.27285 | 5921 ft | 143 kts | 254° |
| 2026-05-05 15:49 | 33.81923 | -95.28403 | 5927 ft | 144 kts | 254° |
| 2026-05-05 15:49 | 33.81592 | -95.29536 | 5927 ft | 144 kts | 254° |
| 2026-05-05 15:49 | 33.81261 | -95.30667 | 5927 ft | 143 kts | 254° |
| 2026-05-05 15:49 | 33.80931 | -95.31795 | 5925 ft | 143 kts | 253° |
| 2026-05-05 15:50 | 33.80602 | -95.32920 | 5926 ft | 143 kts | 253° |
| 2026-05-05 15:50 | 33.80272 | -95.34049 | 5920 ft | 143 kts | 253° |
| 2026-05-05 15:50 | 33.79941 | -95.35181 | 5920 ft | 144 kts | 253° |
| 2026-05-05 15:50 | 33.79610 | -95.36310 | 5922 ft | 143 kts | 253° |
| 2026-05-05 15:51 | 33.79283 | -95.37427 | 5920 ft | 143 kts | 253° |
| 2026-05-05 15:51 | 33.78952 | -95.38557 | 5922 ft | 143 kts | 253° |
| 2026-05-05 15:51 | 33.78620 | -95.39689 | 5918 ft | 144 kts | 253° |
| 2026-05-05 15:51 | 33.78286 | -95.40827 | 5923 ft | 144 kts | 253° |
| 2026-05-05 15:52 | 33.77953 | -95.41963 | 5924 ft | 144 kts | 253° |
| 2026-05-05 15:52 | 33.77618 | -95.43105 | 5926 ft | 145 kts | 254° |
| 2026-05-05 15:52 | 33.77284 | -95.44242 | 5926 ft | 144 kts | 253° |
| 2026-05-05 15:52 | 33.76952 | -95.45373 | 5926 ft | 143 kts | 253° |
| 2026-05-05 15:53 | 33.76625 | -95.46485 | 5926 ft | 143 kts | 253° |
| 2026-05-05 15:53 | 33.76294 | -95.47608 | 5922 ft | 143 kts | 253° |
| 2026-05-05 15:53 | 33.75962 | -95.48739 | 5923 ft | 144 kts | 253° |
| 2026-05-05 15:53 | 33.75681 | -95.49693 | 5921 ft | 145 kts | 253° |
| 2026-05-05 15:54 | 33.75445 | -95.50496 | 5923 ft | 145 kts | 253° |
| 2026-05-05 15:54 | 33.75110 | -95.51637 | 5921 ft | 144 kts | 253° |
| 2026-05-05 15:54 | 33.74776 | -95.52767 | 5925 ft | 143 kts | 253° |
| 2026-05-05 15:54 | 33.74443 | -95.53896 | 5931 ft | 143 kts | 253° |
| 2026-05-05 15:55 | 33.74115 | -95.55010 | 5933 ft | 143 kts | 253° |
| 2026-05-05 15:55 | 33.73782 | -95.56139 | 5928 ft | 144 kts | 252° |
| 2026-05-05 15:55 | 33.73448 | -95.57268 | 5931 ft | 144 kts | 252° |
| 2026-05-05 15:55 | 33.73114 | -95.58400 | 5931 ft | 144 kts | 252° |
| 2026-05-05 15:56 | 33.72780 | -95.59534 | 5932 ft | 144 kts | 252° |
| 2026-05-05 15:56 | 33.72445 | -95.60669 | 5932 ft | 144 kts | 252° |
| 2026-05-05 15:56 | 33.72109 | -95.61804 | 5929 ft | 144 kts | 252° |
| 2026-05-05 15:56 | 33.71776 | -95.62932 | 5911 ft | 143 kts | 252° |
| 2026-05-05 15:57 | 33.71447 | -95.64047 | 5907 ft | 143 kts | 252° |
| 2026-05-05 15:57 | 33.71112 | -95.65179 | 5911 ft | 145 kts | 252° |
| 2026-05-05 15:57 | 33.70809 | -95.66206 | 5911 ft | 146 kts | 252° |
| 2026-05-05 15:57 | 33.70469 | -95.67355 | 5907 ft | 146 kts | 252° |
| 2026-05-05 15:58 | 33.70129 | -95.68507 | 5911 ft | 147 kts | 252° |
| 2026-05-05 15:58 | 33.69788 | -95.69658 | 5912 ft | 146 kts | 252° |
| 2026-05-05 15:58 | 33.69449 | -95.70802 | 5905 ft | 145 kts | 252° |
| 2026-05-05 15:58 | 33.69111 | -95.71940 | 5914 ft | 145 kts | 252° |
| 2026-05-05 15:59 | 33.68778 | -95.73062 | 5914 ft | 145 kts | 251° |
| 2026-05-05 15:59 | 33.68437 | -95.74213 | 5909 ft | 147 kts | 252° |
| 2026-05-05 15:59 | 33.68094 | -95.75370 | 5904 ft | 147 kts | 252° |
| 2026-05-05 15:59 | 33.67750 | -95.76528 | 5905 ft | 147 kts | 252° |
| 2026-05-05 16:00 | 33.67409 | -95.77677 | 5911 ft | 146 kts | 251° |
| 2026-05-05 16:00 | 33.67068 | -95.78822 | 5906 ft | 145 kts | 251° |
| 2026-05-05 16:00 | 33.66729 | -95.79964 | 5908 ft | 145 kts | 251° |
| 2026-05-05 16:00 | 33.66390 | -95.81101 | 5905 ft | 144 kts | 252° |
| 2026-05-05 16:01 | 33.66057 | -95.82219 | 5908 ft | 144 kts | 252° |
| 2026-05-05 16:01 | 33.65720 | -95.83351 | 5908 ft | 144 kts | 252° |
| 2026-05-05 16:01 | 33.65385 | -95.84477 | 5913 ft | 143 kts | 251° |
| 2026-05-05 16:01 | 33.65049 | -95.85602 | 5916 ft | 143 kts | 251° |
| 2026-05-05 16:02 | 33.64713 | -95.86729 | 5916 ft | 143 kts | 252° |
| 2026-05-05 16:02 | 33.64376 | -95.87859 | 5914 ft | 144 kts | 251° |
| 2026-05-05 16:02 | 33.64041 | -95.88981 | 5916 ft | 142 kts | 252° |
| 2026-05-05 16:02 | 33.63712 | -95.90083 | 5911 ft | 143 kts | 251° |
| 2026-05-05 16:03 | 33.63377 | -95.91206 | 5914 ft | 144 kts | 251° |
| 2026-05-05 16:03 | 33.63038 | -95.92340 | 5911 ft | 144 kts | 251° |
| 2026-05-05 16:03 | 33.62702 | -95.93468 | 5914 ft | 142 kts | 251° |
| 2026-05-05 16:03 | 33.62368 | -95.94584 | 5911 ft | 142 kts | 251° |
| 2026-05-05 16:04 | 33.62036 | -95.95693 | 5911 ft | 141 kts | 251° |
| 2026-05-05 16:04 | 33.61703 | -95.96808 | 5910 ft | 142 kts | 251° |
| 2026-05-05 16:04 | 33.61366 | -95.97933 | 5911 ft | 144 kts | 251° |
| 2026-05-05 16:04 | 33.61033 | -95.99049 | 5912 ft | 145 kts | 251° |
| 2026-05-05 16:05 | 33.60694 | -96.00181 | 5909 ft | 144 kts | 251° |
| 2026-05-05 16:05 | 33.60356 | -96.01310 | 5911 ft | 144 kts | 251° |
| 2026-05-05 16:05 | 33.60018 | -96.02438 | 5907 ft | 144 kts | 251° |
| 2026-05-05 16:05 | 33.59678 | -96.03574 | 5911 ft | 144 kts | 251° |
| 2026-05-05 16:06 | 33.59338 | -96.04709 | 5907 ft | 144 kts | 251° |
| 2026-05-05 16:06 | 33.58999 | -96.05837 | 5911 ft | 143 kts | 252° |
| 2026-05-05 16:06 | 33.58669 | -96.06939 | 5911 ft | 141 kts | 251° |
| 2026-05-05 16:06 | 33.58337 | -96.08045 | 5911 ft | 141 kts | 252° |
| 2026-05-05 16:07 | 33.57944 | -96.09354 | 5904 ft | 142 kts | 251° |
| 2026-05-05 16:07 | 33.57721 | -96.10094 | 5907 ft | 143 kts | 251° |
| 2026-05-05 16:08 | 33.57442 | -96.11024 | 5903 ft | 144 kts | 251° |
| 2026-05-05 16:09 | 33.57267 | -96.11603 | 5903 ft | 143 kts | 251° |
| 2026-05-05 16:09 | 33.57163 | -96.11952 | 5903 ft | 142 kts | 251° |
| 2026-05-05 16:09 | 33.56933 | -96.12717 | 5900 ft | 142 kts | 250° |
| 2026-05-05 16:09 | 33.56599 | -96.13825 | 5902 ft | 142 kts | 250° |
| 2026-05-05 16:10 | 33.56264 | -96.14939 | 5903 ft | 143 kts | 250° |
| 2026-05-05 16:10 | 33.55924 | -96.16070 | 5901 ft | 145 kts | 251° |
| 2026-05-05 16:10 | 33.55581 | -96.17210 | 5898 ft | 145 kts | 251° |
| 2026-05-05 16:10 | 33.55239 | -96.18346 | 5901 ft | 145 kts | 251° |
| 2026-05-05 16:11 | 33.54902 | -96.19469 | 5899 ft | 146 kts | 250° |
| 2026-05-05 16:11 | 33.53873 | -96.22933 | 5905 ft | 147 kts | 253° |
| 2026-05-05 16:12 | 33.53582 | -96.24068 | 5893 ft | 146 kts | 253° |
| 2026-05-05 16:12 | 33.53004 | -96.26419 | 5902 ft | 147 kts | 254° |
| 2026-05-05 16:13 | 33.52159 | -96.29912 | 5902 ft | 145 kts | 255° |
| 2026-05-05 16:13 | 33.51879 | -96.31076 | 5901 ft | 145 kts | 255° |
| 2026-05-05 16:13 | 33.51601 | -96.32234 | 5904 ft | 144 kts | 255° |
| 2026-05-05 16:14 | 33.51046 | -96.34541 | 5901 ft | 144 kts | 255° |
| 2026-05-05 16:14 | 33.50492 | -96.36843 | 5911 ft | 145 kts | 255° |
| 2026-05-05 16:15 | 33.49934 | -96.39161 | 5906 ft | 145 kts | 255° |
| 2026-05-05 16:15 | 33.49375 | -96.41484 | 5906 ft | 145 kts | 255° |
| 2026-05-05 16:16 | 33.48816 | -96.43804 | 5905 ft | 145 kts | 255° |
| 2026-05-05 16:16 | 33.48258 | -96.46116 | 5909 ft | 145 kts | 255° |
| 2026-05-05 16:17 | 33.47694 | -96.48450 | 5906 ft | 146 kts | 255° |
| 2026-05-05 16:17 | 33.47412 | -96.49619 | 5909 ft | 146 kts | 255° |
| 2026-05-05 16:18 | 33.46843 | -96.51973 | 5903 ft | 147 kts | 255° |
| 2026-05-05 16:18 | 33.46560 | -96.53147 | 5853 ft | 146 kts | 256° |
| 2026-05-05 16:18 | 33.45988 | -96.55565 | 5501 ft | 154 kts | 258° |
| 2026-05-05 16:19 | 33.45702 | -96.56775 | 5339 ft | 153 kts | 257° |
| 2026-05-05 16:19 | 33.45412 | -96.57997 | 5170 ft | 152 kts | 258° |
| 2026-05-05 16:19 | 33.44904 | -96.60405 | 4837 ft | 147 kts | 261° |
| 2026-05-05 16:20 | 33.44451 | -96.62806 | 4448 ft | 148 kts | 261° |
| 2026-05-05 16:20 | 33.44017 | -96.65174 | 4057 ft | 144 kts | 260° |
| 2026-05-05 16:21 | 33.43567 | -96.67514 | 3945 ft | 146 kts | 258° |
| 2026-05-05 16:22 | 33.43459 | -96.71108 | 3920 ft | 146 kts | 276° |
| 2026-05-05 16:22 | 33.43785 | -96.73489 | 3911 ft | 144 kts | 276° |
| 2026-05-05 16:23 | 33.44060 | -96.75863 | 3910 ft | 143 kts | 275° |
| 2026-05-05 16:23 | 33.44183 | -96.77029 | 3907 ft | 143 kts | 275° |
| 2026-05-05 16:23 | 33.44418 | -96.79383 | 3907 ft | 141 kts | 275° |
| 2026-05-05 16:24 | 33.44531 | -96.80548 | 3907 ft | 141 kts | 275° |
| 2026-05-05 16:24 | 33.44643 | -96.81722 | 3907 ft | 142 kts | 275° |
| 2026-05-05 16:24 | 33.44866 | -96.84088 | 3906 ft | 144 kts | 274° |
| 2026-05-05 16:25 | 33.44977 | -96.85277 | 3902 ft | 143 kts | 276° |
| 2026-05-05 16:25 | 33.45193 | -96.87615 | 3903 ft | 141 kts | 276° |
| 2026-05-05 16:25 | 33.45301 | -96.88784 | 3903 ft | 141 kts | 276° |
| 2026-05-05 16:26 | 33.45515 | -96.91107 | 3909 ft | 140 kts | 276° |
| 2026-05-05 16:26 | 33.44917 | -96.93193 | 3920 ft | 139 kts | 237° |
| 2026-05-05 16:27 | 33.44277 | -96.94059 | 3915 ft | 142 kts | 236° |
| 2026-05-05 16:27 | 33.43629 | -96.94953 | 3913 ft | 143 kts | 237° |
| 2026-05-05 16:27 | 33.42993 | -96.95876 | 3912 ft | 144 kts | 238° |
| 2026-05-05 16:27 | 33.42372 | -96.96816 | 3910 ft | 144 kts | 239° |
| 2026-05-05 16:28 | 33.41763 | -96.97766 | 3929 ft | 143 kts | 239° |
| 2026-05-05 16:28 | 33.41165 | -96.98719 | 3959 ft | 143 kts | 241° |
| 2026-05-05 16:28 | 33.40572 | -96.99681 | 3970 ft | 144 kts | 240° |
| 2026-05-05 16:28 | 33.39980 | -97.00649 | 3979 ft | 144 kts | 241° |
| 2026-05-05 16:29 | 33.39391 | -97.01618 | 3984 ft | 144 kts | 240° |
| 2026-05-05 16:29 | 33.38814 | -97.02574 | 3986 ft | 144 kts | 241° |
| 2026-05-05 16:29 | 33.38229 | -97.03547 | 3986 ft | 145 kts | 242° |
| 2026-05-05 16:29 | 33.37642 | -97.04525 | 3988 ft | 145 kts | 242° |
| 2026-05-05 16:30 | 33.37050 | -97.05510 | 3990 ft | 146 kts | 241° |
| 2026-05-05 16:30 | 33.36457 | -97.06498 | 3993 ft | 147 kts | 241° |
| 2026-05-05 16:30 | 33.35860 | -97.07494 | 3995 ft | 148 kts | 240° |
| 2026-05-05 16:30 | 33.35258 | -97.08500 | 3995 ft | 150 kts | 241° |
| 2026-05-05 16:31 | 33.34649 | -97.09517 | 3998 ft | 150 kts | 241° |
| 2026-05-05 16:31 | 33.34055 | -97.10513 | 3995 ft | 149 kts | 241° |
| 2026-05-05 16:31 | 33.33452 | -97.11524 | 3999 ft | 149 kts | 242° |
| 2026-05-05 16:31 | 33.32851 | -97.12529 | 3992 ft | 150 kts | 241° |
| 2026-05-05 16:32 | 33.32252 | -97.13545 | 3747 ft | 148 kts | 244° |
| 2026-05-05 16:32 | 33.31690 | -97.14536 | 3388 ft | 141 kts | 244° |
| 2026-05-05 16:32 | 33.31142 | -97.15493 | 3030 ft | 138 kts | 243° |
| 2026-05-05 16:32 | 33.30584 | -97.16442 | 2762 ft | 137 kts | 240° |
| 2026-05-05 16:33 | 33.30073 | -97.17316 | 2617 ft | 123 kts | 239° |
| 2026-05-05 16:33 | 33.29566 | -97.18156 | 2550 ft | 125 kts | 237° |
| 2026-05-05 16:33 | 33.29066 | -97.18978 | 2529 ft | 123 kts | 237° |
| 2026-05-05 16:33 | 33.28562 | -97.19805 | 2516 ft | 124 kts | 235° |
| 2026-05-05 16:34 | 33.28047 | -97.20647 | 2508 ft | 127 kts | 237° |
| 2026-05-05 16:34 | 33.27525 | -97.21496 | 2505 ft | 127 kts | 235° |
| 2026-05-05 16:34 | 33.26976 | -97.22321 | 2504 ft | 126 kts | 236° |
| 2026-05-05 16:34 | 33.26770 | -97.23332 | 2502 ft | 130 kts | 265° |
| 2026-05-05 16:35 | 33.26791 | -97.24414 | 2502 ft | 130 kts | 264° |
| 2026-05-05 16:35 | 33.26756 | -97.25494 | 2503 ft | 130 kts | 263° |
| 2026-05-05 16:35 | 33.26711 | -97.26558 | 2503 ft | 130 kts | 263° |
| 2026-05-05 16:35 | 33.26664 | -97.27635 | 2502 ft | 130 kts | 263° |
| 2026-05-05 16:36 | 33.26610 | -97.28708 | 2504 ft | 128 kts | 263° |
| 2026-05-05 16:36 | 33.26557 | -97.29765 | 2501 ft | 128 kts | 263° |
| 2026-05-05 16:36 | 33.26476 | -97.30816 | 2499 ft | 126 kts | 251° |
| 2026-05-05 16:36 | 33.25910 | -97.31605 | 2502 ft | 128 kts | 220° |
| 2026-05-05 16:37 | 33.25097 | -97.32081 | 2499 ft | 133 kts | 207° |
| 2026-05-05 16:37 | 33.24222 | -97.32454 | 2502 ft | 133 kts | 205° |
| 2026-05-05 16:37 | 33.23347 | -97.32814 | 2503 ft | 132 kts | 206° |
| 2026-05-05 16:37 | 33.22488 | -97.33165 | 2499 ft | 133 kts | 206° |
| 2026-05-05 16:38 | 33.21606 | -97.33523 | 2501 ft | 134 kts | 205° |
| 2026-05-05 16:38 | 33.20732 | -97.33879 | 2501 ft | 132 kts | 206° |
| 2026-05-05 16:38 | 33.19867 | -97.34232 | 2500 ft | 132 kts | 206° |
| 2026-05-05 16:38 | 33.18999 | -97.34587 | 2501 ft | 132 kts | 207° |
| 2026-05-05 16:39 | 33.18136 | -97.34943 | 2501 ft | 130 kts | 207° |
| 2026-05-05 16:39 | 33.17265 | -97.35240 | 2494 ft | 133 kts | 199° |
| 2026-05-05 16:39 | 33.16322 | -97.35302 | 2496 ft | 138 kts | 186° |
| 2026-05-05 16:39 | 33.15380 | -97.35182 | 2499 ft | 139 kts | 181° |
| 2026-05-05 16:40 | 33.14426 | -97.34990 | 2499 ft | 139 kts | 180° |
| 2026-05-05 16:40 | 33.13467 | -97.34784 | 2495 ft | 142 kts | 181° |
| 2026-05-05 16:40 | 33.12489 | -97.34580 | 2499 ft | 143 kts | 180° |
| 2026-05-05 16:40 | 33.11512 | -97.34381 | 2500 ft | 142 kts | 181° |
| 2026-05-05 16:41 | 33.10551 | -97.34188 | 2499 ft | 139 kts | 180° |
| 2026-05-05 16:41 | 33.09596 | -97.33993 | 2508 ft | 136 kts | 181° |
| 2026-05-05 16:41 | 33.08712 | -97.33821 | 2370 ft | 121 kts | 182° |
| 2026-05-05 16:41 | 33.07925 | -97.33669 | 2210 ft | 110 kts | 179° |
| 2026-05-05 16:42 | 33.07205 | -97.33521 | 2063 ft | 100 kts | 177° |
| 2026-05-05 16:42 | 33.06528 | -97.33380 | 1932 ft | 97 kts | 176° |
| 2026-05-05 16:42 | 33.05868 | -97.33246 | 1800 ft | 96 kts | 176° |
| 2026-05-05 16:42 | 33.05215 | -97.33112 | 1674 ft | 95 kts | 176° |
| 2026-05-05 16:43 | 33.04573 | -97.32979 | 1564 ft | 93 kts | 179° |
| 2026-05-05 16:43 | 33.03916 | -97.32844 | 1446 ft | 97 kts | 176° |
| 2026-05-05 16:43 | 33.03261 | -97.32710 | 1320 ft | 94 kts | 177° |
| 2026-05-05 16:43 | 33.02623 | -97.32578 | 1199 ft | 92 kts | 175° |
| 2026-05-05 16:44 | 33.01987 | -97.32448 | 1073 ft | 97 kts | 176° |
| 2026-05-05 16:44 | 33.01340 | -97.32317 | 941 ft | 90 kts | 177° |
| 2026-05-05 16:44 | 33.00761 | -97.32202 | 792 ft | 75 kts | 175° |
| 2026-05-05 16:44 | 33.00360 | -97.32121 | 693 ft | 43 kts | 170° |
| 2026-05-05 16:45 | 33.00115 | -97.32065 | 704 ft | 32 kts | 179° |
| 2026-05-05 16:45 | 32.99912 | -97.32021 | 700 ft | 20 kts | 177° |
| 2026-05-05 16:45 | 32.99809 | -97.31999 | 686 ft | 15 kts | 165° |
| 2026-05-05 16:45 | 32.99782 | -97.31909 | 687 ft | 14 kts | 101° |
| 2026-05-05 16:46 | 32.99700 | -97.31849 | 687 ft | 15 kts | 172° |
| 2026-05-05 16:46 | 32.99596 | -97.31827 | 687 ft | 15 kts | 170° |
| 2026-05-05 16:46 | 32.99496 | -97.31807 | 687 ft | 14 kts | 171° |
| 2026-05-05 16:46 | 32.99397 | -97.31791 | 687 ft | 16 kts | 175° |
| 2026-05-05 16:47 | 32.99271 | -97.31762 | 685 ft | 21 kts | 172° |
| 2026-05-05 16:47 | 32.99138 | -97.31738 | 686 ft | 19 kts | 172° |
| 2026-05-05 16:47 | 32.99009 | -97.31711 | 686 ft | 19 kts | 170° |
| 2026-05-05 16:47 | 32.98887 | -97.31685 | 687 ft | 18 kts | 170° |
| 2026-05-05 16:48 | 32.98771 | -97.31658 | 685 ft | 16 kts | 170° |
| 2026-05-05 16:48 | 32.98698 | -97.31594 | 683 ft | 15 kts | 108° |
| 2026-05-05 16:48 | 32.98685 | -97.31475 | 686 ft | 12 kts | 80° |
| 2026-05-05 16:48 | 32.98689 | -97.31445 | 683 ft | 0 kts | 80° |
| 2026-05-05 16:53 | 32.98695 | -97.31440 | 685 ft | 5 kts | 7° |
| 2026-05-05 16:53 | 32.98693 | -97.31483 | 682 ft | 7 kts | 253° |
| 2026-05-05 16:53 | 32.98666 | -97.31582 | 695 ft | 15 kts | 234° |
| 2026-05-05 16:53 | 32.98540 | -97.31723 | 753 ft | 42 kts | 216° |
| 2026-05-05 16:54 | 32.98209 | -97.32024 | 996 ft | 70 kts | 216° |
| 2026-05-05 16:54 | 32.97805 | -97.32441 | 1240 ft | 89 kts | 231° |
| 2026-05-05 16:54 | 32.97706 | -97.33234 | 1477 ft | 101 kts | 266° |
| 2026-05-05 16:54 | 32.97796 | -97.34030 | 1703 ft | 98 kts | 268° |
| 2026-05-05 16:55 | 32.97911 | -97.34810 | 1934 ft | 98 kts | 268° |
| 2026-05-05 16:55 | 32.98033 | -97.35671 | 2131 ft | 112 kts | 269° |
| 2026-05-05 16:55 | 32.98169 | -97.36617 | 2330 ft | 120 kts | 274° |
| 2026-05-05 16:55 | 32.98649 | -97.37476 | 2499 ft | 125 kts | 304° |
| 2026-05-05 16:56 | 32.99259 | -97.38240 | 2372 ft | 132 kts | 300° |
| 2026-05-05 16:56 | 32.99839 | -97.39121 | 2438 ft | 140 kts | 295° |
| 2026-05-05 16:56 | 33.00369 | -97.40127 | 2470 ft | 146 kts | 291° |
| 2026-05-05 16:56 | 33.00839 | -97.41204 | 2487 ft | 150 kts | 287° |
| 2026-05-05 16:57 | 33.01265 | -97.42332 | 2496 ft | 149 kts | 284° |
| 2026-05-05 16:57 | 33.01649 | -97.43479 | 2498 ft | 149 kts | 282° |
| 2026-05-05 16:57 | 33.02003 | -97.44642 | 2499 ft | 150 kts | 282° |
| 2026-05-05 16:57 | 33.02339 | -97.45821 | 2499 ft | 150 kts | 281° |
| 2026-05-05 16:58 | 33.02661 | -97.47002 | 2498 ft | 150 kts | 280° |
| 2026-05-05 16:58 | 33.02973 | -97.48188 | 2498 ft | 151 kts | 281° |
| 2026-05-05 16:58 | 33.03282 | -97.49382 | 2498 ft | 151 kts | 280° |
| 2026-05-05 16:58 | 33.03583 | -97.50560 | 2635 ft | 153 kts | 281° |
| 2026-05-05 16:59 | 33.03895 | -97.51778 | 2643 ft | 154 kts | 281° |
| 2026-05-05 16:59 | 33.04207 | -97.52997 | 2648 ft | 153 kts | 282° |
| 2026-05-05 16:59 | 33.04515 | -97.54209 | 2650 ft | 152 kts | 282° |
| 2026-05-05 16:59 | 33.04811 | -97.55406 | 2495 ft | 150 kts | 280° |
| 2026-05-05 17:00 | 33.05100 | -97.56608 | 2500 ft | 151 kts | 280° |
| 2026-05-05 17:00 | 33.05388 | -97.57809 | 2502 ft | 151 kts | 279° |
| 2026-05-05 17:00 | 33.05603 | -97.58705 | 2506 ft | 152 kts | 280° |
| 2026-05-05 17:00 | 33.05894 | -97.59900 | 2512 ft | 151 kts | 282° |
| 2026-05-05 17:01 | 33.06191 | -97.61078 | 2504 ft | 147 kts | 281° |
| 2026-05-05 17:01 | 33.06477 | -97.62245 | 2499 ft | 147 kts | 281° |
| 2026-05-05 17:01 | 33.06759 | -97.63418 | 2501 ft | 147 kts | 282° |
| 2026-05-05 17:01 | 33.07040 | -97.64588 | 2510 ft | 147 kts | 282° |
| 2026-05-05 17:02 | 33.07322 | -97.65757 | 2512 ft | 147 kts | 282° |
| 2026-05-05 17:02 | 33.07606 | -97.66928 | 2516 ft | 147 kts | 282° |
| 2026-05-05 17:02 | 33.07890 | -97.68099 | 2518 ft | 147 kts | 282° |
| 2026-05-05 17:02 | 33.08168 | -97.69240 | 2519 ft | 146 kts | 282° |
| 2026-05-05 17:03 | 33.08448 | -97.70389 | 2522 ft | 147 kts | 282° |
| 2026-05-05 17:03 | 33.08733 | -97.71555 | 2523 ft | 147 kts | 282° |
| 2026-05-05 17:03 | 33.09018 | -97.72727 | 2524 ft | 148 kts | 281° |
| 2026-05-05 17:03 | 33.09306 | -97.73914 | 2526 ft | 150 kts | 282° |
| 2026-05-05 17:04 | 33.09597 | -97.75115 | 2528 ft | 152 kts | 282° |
| 2026-05-05 17:04 | 33.09893 | -97.76327 | 2532 ft | 153 kts | 283° |
| 2026-05-05 17:04 | 33.10193 | -97.77543 | 2533 ft | 153 kts | 283° |
| 2026-05-05 17:04 | 33.10437 | -97.78533 | 2533 ft | 152 kts | 282° |
| 2026-05-05 17:05 | 33.10731 | -97.79721 | 2532 ft | 151 kts | 282° |
| 2026-05-05 17:05 | 33.11026 | -97.80918 | 2532 ft | 150 kts | 282° |
| 2026-05-05 17:05 | 33.11296 | -97.82027 | 2525 ft | 150 kts | 282° |
| 2026-05-05 17:05 | 33.11580 | -97.83214 | 2529 ft | 148 kts | 281° |
| 2026-05-05 17:06 | 33.11861 | -97.84395 | 2530 ft | 148 kts | 281° |
| 2026-05-05 17:06 | 33.12144 | -97.85577 | 2530 ft | 147 kts | 282° |
| 2026-05-05 17:06 | 33.12425 | -97.86748 | 2530 ft | 146 kts | 282° |
| 2026-05-05 17:06 | 33.12705 | -97.87910 | 2531 ft | 146 kts | 282° |
| 2026-05-05 17:07 | 33.12981 | -97.89052 | 2531 ft | 144 kts | 282° |
| 2026-05-05 17:07 | 33.13259 | -97.90208 | 2531 ft | 145 kts | 282° |
| 2026-05-05 17:07 | 33.13537 | -97.91359 | 2531 ft | 144 kts | 282° |
| 2026-05-05 17:07 | 33.13814 | -97.92509 | 2531 ft | 145 kts | 282° |
| 2026-05-05 17:08 | 33.14094 | -97.93672 | 2529 ft | 147 kts | 281° |
| 2026-05-05 17:08 | 33.14376 | -97.94845 | 2527 ft | 148 kts | 281° |
| 2026-05-05 17:08 | 33.14661 | -97.96032 | 2524 ft | 150 kts | 282° |
| 2026-05-05 17:08 | 33.14952 | -97.97235 | 2524 ft | 152 kts | 282° |
| 2026-05-05 17:09 | 33.15243 | -97.98430 | 2521 ft | 151 kts | 283° |
| 2026-05-05 17:09 | 33.15534 | -97.99626 | 2513 ft | 150 kts | 282° |
| 2026-05-05 17:09 | 33.15820 | -98.00812 | 2514 ft | 148 kts | 282° |
| 2026-05-05 17:09 | 33.16103 | -98.01990 | 2512 ft | 147 kts | 282° |
| 2026-05-05 17:10 | 33.16386 | -98.03170 | 2509 ft | 148 kts | 282° |
| 2026-05-05 17:10 | 33.16672 | -98.04356 | 2506 ft | 149 kts | 283° |
| 2026-05-05 17:10 | 33.16960 | -98.05542 | 2502 ft | 148 kts | 284° |
| 2026-05-05 17:10 | 33.17248 | -98.06724 | 2498 ft | 149 kts | 284° |
| 2026-05-05 17:11 | 33.17538 | -98.07917 | 2495 ft | 150 kts | 284° |
| 2026-05-05 17:11 | 33.17731 | -98.08712 | 2494 ft | 150 kts | 284° |
| 2026-05-05 17:11 | 33.18115 | -98.10304 | 2489 ft | 151 kts | 283° |
| 2026-05-05 17:11 | 33.18401 | -98.11496 | 2487 ft | 148 kts | 283° |
| 2026-05-05 17:12 | 33.18683 | -98.12670 | 2480 ft | 147 kts | 283° |
| 2026-05-05 17:12 | 33.18959 | -98.13835 | 2479 ft | 145 kts | 282° |
| 2026-05-05 17:12 | 33.19229 | -98.14983 | 2476 ft | 143 kts | 282° |
| 2026-05-05 17:12 | 33.19408 | -98.15739 | 2474 ft | 143 kts | 282° |
| 2026-05-05 17:13 | 33.19676 | -98.16869 | 2471 ft | 141 kts | 282° |
| 2026-05-05 17:13 | 33.20032 | -98.18369 | 2465 ft | 142 kts | 282° |
| 2026-05-05 17:13 | 33.20303 | -98.19511 | 2459 ft | 144 kts | 283° |
| 2026-05-05 17:13 | 33.20579 | -98.20668 | 2459 ft | 146 kts | 284° |
| 2026-05-05 17:14 | 33.20858 | -98.21837 | 2451 ft | 146 kts | 284° |
| 2026-05-05 17:14 | 33.21043 | -98.22610 | 2448 ft | 147 kts | 284° |
| 2026-05-05 17:14 | 33.21325 | -98.23795 | 2445 ft | 149 kts | 283° |
| 2026-05-05 17:14 | 33.21609 | -98.24983 | 2442 ft | 149 kts | 282° |
| 2026-05-05 17:15 | 33.21893 | -98.26170 | 2441 ft | 149 kts | 283° |
| 2026-05-05 17:15 | 33.22181 | -98.27370 | 2443 ft | 151 kts | 283° |
| 2026-05-05 17:15 | 33.22570 | -98.28964 | 2440 ft | 151 kts | 284° |
| 2026-05-05 17:15 | 33.22862 | -98.30174 | 2441 ft | 152 kts | 283° |
| 2026-05-05 17:16 | 33.23155 | -98.31386 | 2441 ft | 152 kts | 283° |
| 2026-05-05 17:16 | 33.23350 | -98.32204 | 2427 ft | 152 kts | 283° |
| 2026-05-05 17:16 | 33.23638 | -98.33429 | 2431 ft | 155 kts | 284° |
| 2026-05-05 17:16 | 33.23929 | -98.34659 | 2441 ft | 155 kts | 284° |
| 2026-05-05 17:17 | 33.24222 | -98.35891 | 2439 ft | 153 kts | 284° |
| 2026-05-05 17:17 | 33.24515 | -98.37122 | 2442 ft | 156 kts | 284° |
| 2026-05-05 17:17 | 33.24814 | -98.38387 | 2443 ft | 160 kts | 284° |
| 2026-05-05 17:17 | 33.25122 | -98.39676 | 2444 ft | 162 kts | 285° |
| 2026-05-05 17:18 | 33.25434 | -98.40963 | 2446 ft | 160 kts | 284° |
| 2026-05-05 17:18 | 33.25742 | -98.42241 | 2443 ft | 160 kts | 284° |
| 2026-05-05 17:18 | 33.26041 | -98.43487 | 2441 ft | 157 kts | 283° |
| 2026-05-05 17:18 | 33.26336 | -98.44744 | 2487 ft | 158 kts | 282° |
| 2026-05-05 17:19 | 33.26630 | -98.46008 | 2488 ft | 158 kts | 283° |
| 2026-05-05 17:19 | 33.26924 | -98.47272 | 2489 ft | 158 kts | 283° |
| 2026-05-05 17:19 | 33.27222 | -98.48544 | 2489 ft | 159 kts | 282° |
| 2026-05-05 17:19 | 33.27519 | -98.49814 | 2490 ft | 158 kts | 282° |
| 2026-05-05 17:20 | 33.27815 | -98.51077 | 2491 ft | 158 kts | 283° |
| 2026-05-05 17:20 | 33.28113 | -98.52330 | 2496 ft | 154 kts | 285° |
| 2026-05-05 17:20 | 33.28406 | -98.53553 | 2488 ft | 154 kts | 284° |
| 2026-05-05 17:20 | 33.28690 | -98.54761 | 2488 ft | 153 kts | 283° |
| 2026-05-05 17:21 | 33.28977 | -98.55992 | 2488 ft | 154 kts | 283° |
| 2026-05-05 17:21 | 33.29270 | -98.57229 | 2491 ft | 155 kts | 284° |
| 2026-05-05 17:21 | 33.29564 | -98.58480 | 2486 ft | 158 kts | 283° |
| 2026-05-05 17:22 | 33.30159 | -98.61032 | 2486 ft | 159 kts | 284° |
| 2026-05-05 17:22 | 33.30455 | -98.62280 | 2486 ft | 154 kts | 285° |
| 2026-05-05 17:22 | 33.30746 | -98.63516 | 2483 ft | 155 kts | 284° |
| 2026-05-05 17:22 | 33.31037 | -98.64761 | 2481 ft | 155 kts | 283° |
| 2026-05-05 17:23 | 33.31321 | -98.65978 | 2479 ft | 153 kts | 284° |
| 2026-05-05 17:23 | 33.31606 | -98.67199 | 2476 ft | 152 kts | 283° |
| 2026-05-05 17:23 | 33.31888 | -98.68407 | 2475 ft | 150 kts | 282° |
| 2026-05-05 17:23 | 33.32169 | -98.69612 | 2474 ft | 150 kts | 282° |
| 2026-05-05 17:24 | 33.32449 | -98.70809 | 2472 ft | 149 kts | 282° |
| 2026-05-05 17:24 | 33.32724 | -98.71942 | 2485 ft | 133 kts | 284° |
| 2026-05-05 17:24 | 33.32982 | -98.72935 | 2333 ft | 118 kts | 283° |
| 2026-05-05 17:24 | 33.33214 | -98.73846 | 2234 ft | 115 kts | 282° |
| 2026-05-05 17:25 | 33.33433 | -98.74766 | 2194 ft | 117 kts | 282° |
| 2026-05-05 17:25 | 33.33582 | -98.75393 | 2176 ft | 115 kts | 282° |
| 2026-05-05 17:25 | 33.33876 | -98.76627 | 2049 ft | 118 kts | 282° |
| 2026-05-05 17:25 | 33.34087 | -98.77575 | 1958 ft | 115 kts | 274° |
| 2026-05-05 17:26 | 33.33982 | -98.78471 | 1934 ft | 104 kts | 260° |
| 2026-05-05 17:26 | 33.33864 | -98.79275 | 1849 ft | 97 kts | 264° |
| 2026-05-05 17:26 | 33.33806 | -98.80072 | 1693 ft | 97 kts | 278° |
| 2026-05-05 17:26 | 33.34002 | -98.80808 | 1524 ft | 89 kts | 310° |
| 2026-05-05 17:27 | 33.34374 | -98.81290 | 1354 ft | 64 kts | 319° |
| 2026-05-05 17:27 | 33.34624 | -98.81581 | 1283 ft | 37 kts | 316° |
| 2026-05-05 17:27 | 33.34767 | -98.81744 | 1276 ft | 23 kts | 317° |
| 2026-05-05 17:27 | 33.34846 | -98.81793 | 1277 ft | 12 kts | 13° |
| 2026-05-05 17:28 | 33.34921 | -98.81770 | 1277 ft | 10 kts | 12° |
| 2026-05-05 17:28 | 33.34965 | -98.81745 | 1278 ft | 6 kts | 331° |
| 2026-05-05 17:28 | 33.34999 | -98.81782 | 1278 ft | 8 kts | 327° |
| 2026-05-05 17:28 | 33.35060 | -98.81814 | 1278 ft | 11 kts | 355° |
| 2026-05-05 17:29 | 33.35086 | -98.81788 | 1278 ft | 6 kts | 85° |
| 2026-05-05 17:29 | 33.35079 | -98.81791 | 1278 ft | 0 kts | 280° |
| 2026-05-05 17:30 | 33.35079 | -98.81793 | 1278 ft | 2 kts | 280° |
| 2026-05-05 17:30 | 33.35037 | -98.81810 | 1278 ft | 9 kts | 209° |
| 2026-05-05 17:30 | 33.34988 | -98.81899 | 1278 ft | 16 kts | 236° |
| 2026-05-05 17:31 | 33.34961 | -98.81987 | 1278 ft | 9 kts | 324° |
| 2026-05-05 17:31 | 33.35114 | -98.82148 | 1380 ft | 55 kts | 319° |
| 2026-05-05 17:31 | 33.35507 | -98.82601 | 1489 ft | 100 kts | 315° |
| 2026-05-05 17:31 | 33.36079 | -98.83287 | 1626 ft | 123 kts | 315° |
| 2026-05-05 17:32 | 33.36509 | -98.84099 | 1829 ft | 120 kts | 280° |
| 2026-05-05 17:32 | 33.36220 | -98.85094 | 2044 ft | 139 kts | 233° |
| 2026-05-05 17:32 | 33.35287 | -98.85517 | 2280 ft | 156 kts | 186° |
| 2026-05-05 17:32 | 33.34294 | -98.84974 | 2488 ft | 164 kts | 139° |
| 2026-05-05 17:33 | 33.33700 | -98.83752 | 2477 ft | 175 kts | 114° |
| 2026-05-05 17:33 | 33.33291 | -98.82382 | 2472 ft | 174 kts | 110° |
| 2026-05-05 17:33 | 33.32863 | -98.81041 | 2466 ft | 172 kts | 116° |
| 2026-05-05 17:33 | 33.32303 | -98.79785 | 2471 ft | 171 kts | 126° |
| 2026-05-05 17:34 | 33.31625 | -98.78630 | 2461 ft | 169 kts | 131° |
| 2026-05-05 17:34 | 33.30880 | -98.77564 | 2463 ft | 166 kts | 135° |
| 2026-05-05 17:34 | 33.30096 | -98.76556 | 2462 ft | 166 kts | 138° |
| 2026-05-05 17:34 | 33.29279 | -98.75566 | 2469 ft | 168 kts | 140° |
| 2026-05-05 17:35 | 33.28446 | -98.74601 | 2468 ft | 167 kts | 140° |
| 2026-05-05 17:35 | 33.27595 | -98.73627 | 2470 ft | 170 kts | 140° |
| 2026-05-05 17:35 | 33.26747 | -98.72674 | 2476 ft | 165 kts | 142° |
| 2026-05-05 17:35 | 33.25921 | -98.71756 | 2479 ft | 164 kts | 141° |
| 2026-05-05 17:36 | 33.25084 | -98.70836 | 2486 ft | 163 kts | 144° |
| 2026-05-05 17:36 | 33.24236 | -98.69908 | 2485 ft | 167 kts | 141° |
| 2026-05-05 17:36 | 33.23387 | -98.68979 | 2485 ft | 165 kts | 140° |
| 2026-05-05 17:36 | 33.22545 | -98.68051 | 2487 ft | 165 kts | 141° |
| 2026-05-05 17:37 | 33.21709 | -98.67130 | 2490 ft | 162 kts | 143° |
| 2026-05-05 17:37 | 33.20871 | -98.66204 | 2492 ft | 166 kts | 143° |
| 2026-05-05 17:37 | 33.20022 | -98.65268 | 2500 ft | 166 kts | 144° |
| 2026-05-05 17:37 | 33.19185 | -98.64353 | 2499 ft | 166 kts | 143° |
| 2026-05-05 17:38 | 33.18337 | -98.63428 | 2505 ft | 164 kts | 143° |
| 2026-05-05 17:38 | 33.17503 | -98.62521 | 2501 ft | 162 kts | 142° |
| 2026-05-05 17:38 | 33.16666 | -98.61595 | 2503 ft | 165 kts | 140° |
| 2026-05-05 17:38 | 33.15853 | -98.60631 | 2504 ft | 164 kts | 139° |
| 2026-05-05 17:39 | 33.15078 | -98.59671 | 2494 ft | 153 kts | 140° |
| 2026-05-05 17:39 | 33.14369 | -98.58782 | 2248 ft | 146 kts | 139° |
| 2026-05-05 17:39 | 33.13692 | -98.57930 | 2113 ft | 135 kts | 140° |
| 2026-05-05 17:39 | 33.13083 | -98.57156 | 1837 ft | 122 kts | 141° |
| 2026-05-05 17:40 | 33.12537 | -98.56462 | 1663 ft | 111 kts | 134° |
| 2026-05-05 17:40 | 33.12059 | -98.55835 | 1517 ft | 86 kts | 139° |
| 2026-05-05 17:40 | 33.11695 | -98.55456 | 1382 ft | 57 kts | 149° |
| 2026-05-05 17:40 | 33.11371 | -98.55331 | 1252 ft | 42 kts | 201° |
| 2026-05-05 17:41 | 33.11202 | -98.55488 | 1182 ft | 21 kts | 223° |
| 2026-05-05 17:41 | 33.11136 | -98.55596 | 1141 ft | 10 kts | 227° |
| 2026-05-05 17:41 | 33.11114 | -98.55633 | 1114 ft | 4 kts | 236° |
| 2026-05-05 17:41 | 33.11099 | -98.55674 | 1112 ft | 9 kts | 292° |
| 2026-05-05 17:42 | 33.11127 | -98.55725 | 1111 ft | 8 kts | 310° |
| 2026-05-05 17:42 | 33.11181 | -98.55774 | 1115 ft | 10 kts | 323° |
| 2026-05-05 17:42 | 33.11184 | -98.55806 | 1112 ft | 0 kts | 243° |